createdAt,value
2022-10-23T00:00:36.096Z,100894.72
2022-10-23T00:03:39.026Z,100894.81
2022-10-23T00:06:43.111Z,100899.88
2022-10-23T00:09:45.799Z,100894.44
2022-10-23T00:12:49.131Z,100901.03
2022-10-23T00:18:59.280Z,100901.16
2022-10-23T00:22:01.931Z,100896.16
2022-10-23T00:25:08.644Z,100899.09
2022-10-23T00:28:11.322Z,100898.59
2022-10-23T00:31:14.375Z,100906.12
2022-10-23T00:34:17.176Z,100905.38
2022-10-23T00:37:19.706Z,100913.09
2022-10-23T00:40:22.534Z,100925.41
2022-10-23T00:43:27.595Z,100930.59
2022-10-23T00:46:31.495Z,100931.28
2022-10-23T00:49:34.613Z,100929.00
2022-10-23T00:52:44.506Z,100922.00
2022-10-23T00:55:49.053Z,100931.78
2022-10-23T00:58:51.824Z,100921.87
2022-10-23T01:01:54.746Z,100929.72
2022-10-23T01:04:57.642Z,100941.22
2022-10-23T01:08:12.443Z,100935.28
2022-10-23T01:11:22.893Z,100937.38
2022-10-23T01:15:03.478Z,100939.75
2022-10-23T01:18:12.410Z,100940.22
2022-10-23T01:21:32.812Z,100949.25
2022-10-23T01:24:48.046Z,100950.31
2022-10-23T01:28:05.220Z,100966.91
2022-10-23T01:31:14.373Z,100966.94
2022-10-23T01:34:22.756Z,100966.72
2022-10-23T01:37:45.436Z,100959.00
2022-10-23T01:41:02.173Z,100968.87
2022-10-23T01:44:11.135Z,100967.41
2022-10-23T01:47:17.065Z,100962.16
2022-10-23T01:50:22.601Z,100959.13
2022-10-23T01:53:31.154Z,100960.78
2022-10-23T01:56:38.679Z,100966.22
2022-10-23T01:59:47.155Z,100962.22
2022-10-23T02:02:51.220Z,100969.25
2022-10-23T02:05:54.358Z,100964.16
2022-10-23T02:08:57.248Z,100963.09
2022-10-23T02:12:24.258Z,100965.69
2022-10-23T02:15:33.029Z,100963.66
2022-10-23T02:18:57.617Z,100960.31
2022-10-23T02:22:05.361Z,100949.34
2022-10-23T02:25:08.121Z,100960.78
2022-10-23T02:28:16.482Z,100959.88
2022-10-23T02:31:22.375Z,100953.91
2022-10-23T02:34:25.028Z,100948.44
2022-10-23T02:37:27.857Z,100944.78
2022-10-23T02:40:39.015Z,100953.44
2022-10-23T02:43:56.125Z,100953.50
2022-10-23T02:47:23.510Z,100961.59
2022-10-23T02:50:48.692Z,100966.16
2022-10-23T02:54:14.891Z,100976.72
2022-10-23T02:57:26.495Z,100978.31
2022-10-23T03:00:31.112Z,100981.53
2022-10-23T03:03:38.204Z,100980.16
2022-10-23T03:06:41.000Z,100987.09
2022-10-23T03:09:49.545Z,100989.87
2022-10-23T03:12:52.116Z,100986.31
2022-10-23T03:15:55.059Z,100996.63
2022-10-23T03:18:57.650Z,100997.75
2022-10-23T03:22:00.355Z,101003.06
2022-10-23T03:25:03.168Z,101001.72
2022-10-23T03:28:06.740Z,101001.09
2022-10-23T03:31:09.886Z,101002.13
2022-10-23T03:34:15.011Z,101003.16
2022-10-23T03:37:17.676Z,100997.25
2022-10-23T03:40:20.417Z,101011.91
2022-10-23T03:43:22.869Z,101011.88
2022-10-23T03:46:25.651Z,101015.59
2022-10-23T03:49:28.360Z,101019.38
2022-10-23T03:52:37.569Z,101022.97
2022-10-23T03:55:39.995Z,101025.53
2022-10-23T03:58:42.783Z,101027.47
2022-10-23T04:01:46.511Z,101031.16
2022-10-23T04:04:49.536Z,101031.19
2022-10-23T04:07:51.976Z,101032.06
2022-10-23T04:10:55.829Z,101027.91
2022-10-23T04:14:00.077Z,101029.63
2022-10-23T04:17:02.921Z,101031.38
2022-10-23T04:20:05.724Z,101024.63
2022-10-23T04:23:08.586Z,101017.91
2022-10-23T04:26:11.528Z,101023.94
2022-10-23T04:29:14.778Z,101008.41
2022-10-23T04:32:17.247Z,101011.03
2022-10-23T04:35:20.430Z,101008.50
2022-10-23T04:38:23.120Z,101001.84
2022-10-23T04:41:26.113Z,100998.22
2022-10-23T04:44:28.600Z,100993.03
2022-10-23T04:47:31.415Z,100998.22
2022-10-23T04:50:34.030Z,101000.81
2022-10-23T04:53:41.593Z,101003.91
2022-10-23T04:56:44.634Z,101010.88
2022-10-23T04:59:47.684Z,101005.78
2022-10-23T05:02:50.095Z,101012.41
2022-10-23T05:05:54.771Z,101013.34
2022-10-23T05:08:57.799Z,101029.56
2022-10-23T05:12:00.727Z,101026.94
2022-10-23T05:15:03.267Z,101024.66
2022-10-23T05:18:14.195Z,101025.66
2022-10-23T05:21:26.854Z,101036.09
2022-10-23T05:24:29.700Z,101023.31
2022-10-23T05:27:32.615Z,101024.28
2022-10-23T05:30:35.513Z,101019.16
2022-10-23T05:33:38.584Z,101027.81
2022-10-23T05:36:41.468Z,101037.22
2022-10-23T05:39:43.939Z,101029.28
2022-10-23T05:42:47.699Z,101024.81
2022-10-23T05:45:50.960Z,101034.16
2022-10-23T05:48:55.015Z,101024.50
2022-10-23T05:51:58.344Z,101048.78
2022-10-23T05:55:01.675Z,101035.84
2022-10-23T05:58:09.284Z,101055.50
2022-10-23T06:01:15.534Z,101052.66
2022-10-23T06:04:18.531Z,101052.31
2022-10-23T06:07:29.187Z,101046.81
2022-10-23T06:10:36.725Z,101054.19
2022-10-23T06:13:43.219Z,101056.47
2022-10-23T06:16:46.220Z,101059.63
2022-10-23T06:19:49.004Z,101061.88
2022-10-23T06:22:52.941Z,101059.91
2022-10-23T06:25:57.441Z,101063.09
2022-10-23T06:29:01.252Z,101069.78
2022-10-23T06:32:04.092Z,101067.00
2022-10-23T06:35:07.370Z,101075.28
2022-10-23T06:38:10.586Z,101081.03
2022-10-23T06:41:17.105Z,101080.09
2022-10-23T06:44:20.572Z,101094.47
2022-10-23T06:47:23.456Z,101099.09
2022-10-23T06:50:32.174Z,101091.22
2022-10-23T06:53:37.034Z,101094.19
2022-10-23T06:56:40.049Z,101091.97
2022-10-23T06:59:43.584Z,101094.28
2022-10-23T07:02:46.252Z,101097.34
2022-10-23T07:05:49.180Z,101094.28
2022-10-23T07:08:52.266Z,101099.06
2022-10-23T07:11:57.135Z,101105.78
2022-10-23T07:15:00.045Z,101105.56
2022-10-23T07:18:03.065Z,101102.59
2022-10-23T07:21:06.368Z,101102.03
2022-10-23T07:24:09.036Z,101106.69
2022-10-23T07:27:12.839Z,101122.47
2022-10-23T07:30:16.934Z,101113.53
2022-10-23T07:33:19.647Z,101112.88
2022-10-23T07:36:23.007Z,101115.72
2022-10-23T07:39:25.663Z,101120.94
2022-10-23T07:42:28.395Z,101108.44
2022-10-23T07:45:30.954Z,101110.72
2022-10-23T07:48:34.830Z,101113.47
2022-10-23T07:51:37.672Z,101110.50
2022-10-23T07:54:40.581Z,101097.09
2022-10-23T07:57:45.049Z,101105.56
2022-10-23T08:00:58.497Z,101112.09
2022-10-23T08:04:01.526Z,101107.84
2022-10-23T08:07:04.459Z,101114.31
2022-10-23T08:10:07.854Z,101109.34
2022-10-23T08:13:13.218Z,101106.00
2022-10-23T08:16:17.642Z,101104.22
2022-10-23T08:19:21.414Z,101094.28
2022-10-23T08:22:24.831Z,101091.16
2022-10-23T08:25:27.314Z,101095.19
2022-10-23T08:28:30.567Z,101092.22
2022-10-23T08:31:33.066Z,101087.87
2022-10-23T08:34:37.944Z,101096.56
2022-10-23T08:37:40.690Z,101099.28
2022-10-23T08:40:46.697Z,101105.56
2022-10-23T08:44:00.442Z,101101.19
2022-10-23T08:47:13.628Z,101101.81
2022-10-23T08:50:34.803Z,101102.38
2022-10-23T08:53:52.743Z,101104.56
2022-10-23T08:57:03.620Z,101097.94
2022-10-23T09:00:09.166Z,101103.47
2022-10-23T09:03:13.206Z,101094.84
2022-10-23T09:06:45.066Z,101093.53
2022-10-23T09:10:03.431Z,101100.06
2022-10-23T09:13:21.388Z,101097.63
2022-10-23T09:16:42.685Z,101100.78
2022-10-23T09:19:46.373Z,101100.56
2022-10-23T09:22:53.074Z,101095.38
2022-10-23T09:25:56.993Z,101097.75
2022-10-23T09:29:15.259Z,101096.22
2022-10-23T09:32:18.735Z,101098.97
2022-10-23T09:35:26.731Z,101098.16
2022-10-23T09:38:42.648Z,101104.34
2022-10-23T09:41:45.743Z,101103.00
2022-10-23T09:44:50.804Z,101108.41
2022-10-23T09:48:11.047Z,101102.69
2022-10-23T09:51:20.508Z,101107.94
2022-10-23T09:54:25.722Z,101108.50
2022-10-23T09:57:42.677Z,101108.19
2022-10-23T10:00:52.278Z,101109.47
2022-10-23T10:04:10.395Z,101110.94
2022-10-23T10:07:22.784Z,101102.69
2022-10-23T10:10:33.750Z,101101.50
2022-10-23T10:13:45.109Z,101103.00
2022-10-23T10:17:11.624Z,101097.09
2022-10-23T10:20:17.299Z,101094.91
2022-10-23T10:23:45.396Z,101083.00
2022-10-23T10:27:00.401Z,101080.25
2022-10-23T10:30:13.421Z,101068.97
2022-10-23T10:33:24.915Z,101065.88
2022-10-23T10:36:51.471Z,101066.06
2022-10-23T10:40:17.583Z,101068.41
2022-10-23T10:43:45.882Z,101066.31
2022-10-23T10:46:54.521Z,101059.03
2022-10-23T10:50:15.244Z,101053.97
2022-10-23T10:53:31.276Z,101050.59
2022-10-23T10:56:38.352Z,101048.06
2022-10-23T10:59:46.423Z,101040.56
2022-10-23T11:03:00.130Z,101040.00
2022-10-23T11:06:06.130Z,101039.94
2022-10-23T11:09:29.427Z,101041.50
2022-10-23T11:12:33.574Z,101027.22
2022-10-23T11:15:42.899Z,101025.28
2022-10-23T11:19:14.090Z,101015.75
2022-10-23T11:22:26.902Z,101022.53
2022-10-23T11:26:18.844Z,101011.00
2022-10-23T11:29:42.877Z,101006.81
2022-10-23T11:32:55.264Z,101005.88
2022-10-23T11:36:06.967Z,101003.09
2022-10-23T11:39:29.772Z,101014.91
2022-10-23T11:42:46.841Z,101003.16
2022-10-23T11:45:49.584Z,101009.69
2022-10-23T11:48:55.265Z,101001.62
2022-10-23T11:52:04.150Z,101005.41
2022-10-23T11:55:22.976Z,100998.47
2022-10-23T11:58:47.788Z,100994.62
2022-10-23T12:01:52.958Z,101000.34
2022-10-23T12:04:56.186Z,100999.44
2022-10-23T12:08:02.301Z,100995.47
2022-10-23T12:11:05.349Z,100986.88
2022-10-23T12:14:27.675Z,100989.13
2022-10-23T12:17:35.958Z,100985.19
2022-10-23T12:20:56.240Z,100986.50
2022-10-23T12:24:12.581Z,100974.91
2022-10-23T12:27:30.582Z,100968.72
2022-10-23T12:30:52.713Z,100960.72
2022-10-23T12:34:23.695Z,100963.75
2022-10-23T12:37:45.092Z,100964.50
2022-10-23T12:41:00.761Z,100956.69
2022-10-23T12:44:05.573Z,100950.91
2022-10-23T12:47:18.877Z,100950.88
2022-10-23T12:50:39.992Z,100943.75
2022-10-23T12:53:48.825Z,100940.94
2022-10-23T12:56:53.084Z,100942.84
2022-10-23T13:00:00.216Z,100935.16
2022-10-23T13:03:04.631Z,100928.81
2022-10-23T13:06:07.525Z,100924.78
2022-10-23T13:09:38.614Z,100931.47
2022-10-23T13:12:50.706Z,100932.22
2022-10-23T13:15:53.614Z,100931.34
2022-10-23T13:18:56.257Z,100925.47
2022-10-23T13:21:59.907Z,100914.72
2022-10-23T13:25:02.586Z,100912.78
2022-10-23T13:28:08.391Z,100907.84
2022-10-23T13:31:11.591Z,100905.03
2022-10-23T13:34:27.414Z,100906.72
2022-10-23T13:37:30.599Z,100901.09
2022-10-23T13:40:33.965Z,100893.97
2022-10-23T13:43:36.752Z,100894.81
2022-10-23T13:46:39.935Z,100893.97
2022-10-23T13:49:42.816Z,100890.97
2022-10-23T13:52:46.440Z,100888.34
2022-10-23T13:55:54.952Z,100884.41
2022-10-23T14:14:09.145Z,100872.34
2022-10-23T14:17:12.359Z,100864.84
2022-10-23T14:20:17.271Z,100871.81
2022-10-23T14:23:21.358Z,100858.72
2022-10-23T14:26:30.072Z,100858.16
2022-10-23T14:29:33.041Z,100860.97
2022-10-23T14:32:35.639Z,100862.62
2022-10-23T14:35:43.408Z,100857.47
2022-10-23T14:38:46.076Z,100852.78
2022-10-23T14:41:49.137Z,100851.19
2022-10-23T14:44:52.159Z,100848.75
2022-10-23T14:47:55.652Z,100846.31
2022-10-23T14:50:58.272Z,100842.84
2022-10-23T14:54:03.727Z,100834.50
2022-10-23T14:57:06.535Z,100826.84
2022-10-23T15:00:11.437Z,100830.19
2022-10-23T15:03:15.763Z,100841.78
2022-10-23T15:06:18.843Z,100835.78
2022-10-23T15:09:21.732Z,100833.16
2022-10-23T15:12:24.744Z,100834.28
2022-10-23T15:15:27.388Z,100827.53
2022-10-23T15:18:30.579Z,100818.00
2022-10-23T15:21:33.702Z,100803.22
2022-10-23T15:24:37.739Z,100801.66
2022-10-23T15:27:40.521Z,100793.81
2022-10-23T15:30:45.600Z,100795.28
2022-10-23T15:33:49.861Z,100797.62
2022-10-23T15:36:54.623Z,100805.56
2022-10-23T15:39:59.738Z,100810.72
2022-10-23T15:43:05.443Z,100812.41
2022-10-23T15:46:08.066Z,100811.06
2022-10-23T15:49:11.964Z,100808.88
2022-10-23T15:52:15.757Z,100812.53
2022-10-23T15:55:19.682Z,100815.31
2022-10-23T15:58:23.012Z,100812.06
2022-10-23T16:01:26.350Z,100809.47
2022-10-23T16:04:29.968Z,100815.63
2022-10-23T16:07:32.633Z,100811.25
2022-10-23T16:10:42.546Z,100822.97
2022-10-23T16:13:46.286Z,100831.88
2022-10-23T16:16:50.361Z,100836.19
2022-10-23T16:19:53.271Z,100833.63
2022-10-23T16:22:56.342Z,100835.59
2022-10-23T16:26:05.011Z,100838.38
2022-10-23T16:29:09.686Z,100838.28
2022-10-23T16:32:13.364Z,100848.81
2022-10-23T16:35:16.433Z,100860.22
2022-10-23T16:38:20.713Z,100856.00
2022-10-23T16:41:24.120Z,100852.72
2022-10-23T16:44:27.273Z,100852.44
2022-10-23T16:47:31.356Z,100842.12
2022-10-23T16:50:34.037Z,100845.28
2022-10-23T16:53:37.639Z,100843.91
2022-10-23T16:56:41.441Z,100850.81
2022-10-23T16:59:44.374Z,100846.44
2022-10-23T17:02:47.417Z,100857.06
2022-10-23T17:05:50.680Z,100859.44
2022-10-23T17:08:54.907Z,100866.53
2022-10-23T17:11:59.416Z,100872.31
2022-10-23T17:15:02.152Z,100869.69
2022-10-23T17:18:05.284Z,100871.34
2022-10-23T17:21:08.473Z,100873.06
2022-10-23T17:24:12.937Z,100855.75
2022-10-23T17:27:15.851Z,100859.78
2022-10-23T17:30:20.184Z,100857.69
2022-10-23T17:33:23.088Z,100843.25
2022-10-23T17:36:27.113Z,100839.84
2022-10-23T17:39:31.338Z,100850.59
2022-10-23T17:42:34.380Z,100842.91
2022-10-23T17:45:39.530Z,100854.09
2022-10-23T17:48:45.779Z,100856.47
2022-10-23T17:51:54.064Z,100849.28
2022-10-23T17:54:56.967Z,100840.66
2022-10-23T17:57:59.619Z,100833.16
2022-10-23T18:01:08.522Z,100835.41
2022-10-23T18:04:16.546Z,100826.63
2022-10-23T18:07:19.937Z,100827.56
2022-10-23T18:10:24.368Z,100831.13
2022-10-23T18:13:27.232Z,100839.88
2022-10-23T18:16:30.540Z,100832.00
2022-10-23T18:19:33.712Z,100834.06
2022-10-23T18:22:37.184Z,100844.53
2022-10-23T18:25:42.928Z,100834.59
2022-10-23T18:28:47.616Z,100843.19
2022-10-23T18:31:51.403Z,100846.56
2022-10-23T18:34:54.783Z,100840.87
2022-10-23T18:37:58.142Z,100849.84
2022-10-23T18:41:01.474Z,100842.75
2022-10-23T18:44:05.121Z,100840.28
2022-10-23T18:47:08.493Z,100835.25
2022-10-23T18:50:11.805Z,100830.41
2022-10-23T18:53:15.214Z,100829.06
2022-10-23T18:56:23.820Z,100830.03
2022-10-23T18:59:27.181Z,100829.25
2022-10-23T19:02:30.248Z,100832.88
2022-10-23T19:05:33.399Z,100830.50
2022-10-23T19:08:38.544Z,100843.44
2022-10-23T19:11:42.424Z,100840.28
2022-10-23T19:14:45.988Z,100829.19
2022-10-23T19:17:55.470Z,100832.78
2022-10-23T19:20:59.700Z,100839.72
2022-10-23T19:24:09.151Z,100836.56
2022-10-23T19:27:12.159Z,100845.03
2022-10-23T19:30:22.575Z,100845.44
2022-10-23T19:33:25.732Z,100843.84
2022-10-23T19:36:28.728Z,100843.78
2022-10-23T19:39:31.780Z,100837.78
2022-10-23T19:42:38.145Z,100831.72
2022-10-23T19:45:41.872Z,100829.34
2022-10-23T19:48:46.756Z,100830.34
2022-10-23T19:51:51.463Z,100832.72
2022-10-23T19:54:54.761Z,100831.13
2022-10-23T19:57:57.845Z,100827.94
2022-10-23T20:01:09.513Z,100835.78
2022-10-23T20:04:12.579Z,100838.28
2022-10-23T20:07:15.726Z,100840.16
2022-10-23T20:10:18.945Z,100848.06
2022-10-23T20:13:21.963Z,100848.16
2022-10-23T20:16:31.760Z,100854.22
2022-10-23T20:19:35.057Z,100853.31
2022-10-23T20:22:40.590Z,100847.22
2022-10-23T20:25:45.821Z,100841.22
2022-10-23T20:28:53.039Z,100837.69
2022-10-23T20:31:55.912Z,100838.78
2022-10-23T20:34:59.603Z,100835.53
2022-10-23T20:38:03.418Z,100835.59
2022-10-23T20:41:06.987Z,100836.25
2022-10-23T20:44:12.850Z,100824.09
2022-10-23T20:47:15.827Z,100820.00
2022-10-23T20:50:19.319Z,100818.56
2022-10-23T20:53:22.245Z,100819.81
2022-10-23T20:56:33.364Z,100801.94
2022-10-23T20:59:36.177Z,100805.72
2022-10-23T21:02:38.692Z,100805.91
2022-10-23T21:05:41.459Z,100797.81
2022-10-23T21:08:44.491Z,100793.16
2022-10-23T21:11:47.375Z,100784.81
2022-10-23T21:14:49.834Z,100788.53
2022-10-23T21:17:52.690Z,100792.97
2022-10-23T21:20:55.227Z,100792.91
2022-10-23T21:24:00.903Z,100807.34
2022-10-23T21:27:03.396Z,100793.34
2022-10-23T21:30:06.795Z,100789.87
2022-10-23T21:33:09.258Z,100795.12
2022-10-23T21:36:17.226Z,100791.59
2022-10-23T21:39:19.667Z,100793.41
2022-10-23T21:42:22.396Z,100799.41
2022-10-23T21:45:24.830Z,100799.41
2022-10-23T21:48:28.407Z,100800.16
2022-10-23T21:51:35.612Z,100811.62
2022-10-23T21:54:38.300Z,100818.75
2022-10-23T21:57:40.746Z,100799.34
2022-10-23T22:00:43.465Z,100806.94
2022-10-23T22:03:46.322Z,100799.56
2022-10-23T22:06:49.878Z,100785.91
2022-10-23T22:09:52.659Z,100788.00
2022-10-23T22:12:55.122Z,100787.75
2022-10-23T22:16:02.352Z,100792.53
2022-10-23T22:19:04.915Z,100798.28
2022-10-23T22:22:07.587Z,100793.75
2022-10-23T22:25:10.132Z,100793.81
2022-10-23T22:28:12.847Z,100796.25
2022-10-23T22:31:16.994Z,100787.44
2022-10-23T22:37:45.650Z,100801.34
2022-10-23T22:43:57.044Z,100800.03
2022-10-23T22:46:59.825Z,100814.66
2022-10-23T22:50:02.356Z,100812.87
2022-10-23T22:53:05.024Z,100804.72
2022-10-23T22:56:09.246Z,100800.34
2022-10-23T22:59:12.540Z,100791.25
2022-10-23T23:02:15.105Z,100787.16
2022-10-23T23:05:17.872Z,100781.94
2022-10-23T23:08:20.339Z,100775.53
2022-10-23T23:11:23.188Z,100780.03
2022-10-23T23:14:25.753Z,100774.06
2022-10-23T23:17:28.510Z,100775.00
2022-10-23T23:20:30.942Z,100772.41
2022-10-23T23:23:33.629Z,100769.00
2022-10-23T23:26:36.080Z,100767.06
2022-10-23T23:29:39.563Z,100778.97
2022-10-23T23:32:42.191Z,100784.03
2022-10-23T23:35:48.212Z,100790.03
2022-10-23T23:38:51.306Z,100785.56
2022-10-23T23:41:54.113Z,100777.44
2022-10-23T23:45:02.786Z,100773.91
2022-10-23T23:48:12.829Z,100771.97
2022-10-23T23:51:21.452Z,100768.59
2022-10-23T23:54:24.357Z,100766.84
2022-10-23T23:57:27.221Z,100767.75
